createdAt,value
2022-11-12T00:01:06.833Z,58.23
2022-11-12T00:03:58.827Z,56.90
2022-11-12T00:06:49.377Z,56.54
2022-11-12T00:09:40.060Z,57.01
2022-11-12T00:12:29.247Z,57.90
2022-11-12T00:15:19.250Z,58.71
2022-11-12T00:18:09.342Z,59.10
2022-11-12T00:21:00.413Z,58.38
2022-11-12T00:23:50.815Z,57.23
2022-11-12T00:26:40.533Z,57.12
2022-11-12T00:29:30.017Z,58.90
2022-11-12T00:32:19.204Z,59.09
2022-11-12T00:35:13.432Z,59.17
2022-11-12T00:38:05.403Z,59.17
2022-11-12T00:40:55.190Z,57.95
2022-11-12T00:43:44.883Z,57.39
2022-11-12T00:46:34.778Z,58.04
2022-11-12T00:49:25.400Z,59.21
2022-11-12T00:52:15.232Z,59.94
2022-11-12T00:55:07.228Z,60.33
2022-11-12T00:57:57.280Z,59.77
2022-11-12T01:00:46.559Z,57.77
2022-11-12T01:03:37.068Z,57.79
2022-11-12T01:06:26.791Z,58.18
2022-11-12T01:09:16.831Z,58.66
2022-11-12T01:12:08.027Z,58.91
2022-11-12T01:14:58.543Z,58.75
2022-11-12T01:17:48.202Z,58.46
2022-11-12T01:20:40.203Z,58.43
2022-11-12T01:23:29.471Z,57.79
2022-11-12T01:26:20.235Z,58.03
2022-11-12T01:29:11.597Z,59.07
2022-11-12T01:32:01.435Z,57.96
2022-11-12T01:34:51.493Z,54.33
2022-11-12T01:37:41.442Z,54.32
2022-11-12T01:40:31.346Z,53.30
2022-11-12T01:43:21.031Z,53.68
2022-11-12T01:46:17.209Z,53.37
2022-11-12T01:49:09.675Z,53.82
2022-11-12T01:52:02.441Z,53.51
2022-11-12T01:54:53.454Z,53.53
2022-11-12T01:57:45.235Z,52.85
2022-11-12T02:00:34.775Z,52.90
2022-11-12T02:03:27.411Z,52.85
2022-11-12T02:06:18.166Z,52.76
2022-11-12T02:09:07.732Z,52.56
2022-11-12T02:11:57.704Z,52.71
2022-11-12T02:14:46.091Z,52.91
2022-11-12T02:17:37.289Z,53.05
2022-11-12T02:20:28.310Z,52.60
2022-11-12T02:23:19.772Z,53.68
2022-11-12T02:26:09.288Z,53.18
2022-11-12T02:28:59.889Z,52.88
2022-11-12T02:31:49.265Z,52.45
2022-11-12T02:34:38.852Z,52.74
2022-11-12T02:37:28.745Z,52.81
2022-11-12T02:40:20.400Z,52.88
2022-11-12T02:43:10.140Z,52.21
2022-11-12T02:45:59.693Z,52.09
2022-11-12T02:48:49.781Z,52.54
2022-11-12T02:51:39.493Z,52.22
2022-11-12T02:54:29.709Z,52.39
2022-11-12T02:57:20.786Z,51.90
2022-11-12T03:00:12.872Z,52.31
2022-11-12T03:03:02.106Z,52.42
2022-11-12T03:05:58.450Z,52.66
2022-11-12T03:08:47.851Z,53.20
2022-11-12T03:11:37.592Z,53.13
2022-11-12T03:14:29.357Z,52.90
2022-11-12T03:17:19.367Z,52.92
2022-11-12T03:20:09.641Z,53.38
2022-11-12T03:22:59.543Z,53.06
2022-11-12T03:25:48.799Z,53.10
2022-11-12T03:28:38.796Z,53.40
2022-11-12T03:31:29.486Z,52.99
2022-11-12T03:34:19.258Z,53.08
2022-11-12T03:37:11.007Z,53.29
2022-11-12T03:40:01.246Z,53.33
2022-11-12T03:42:51.596Z,53.54
2022-11-12T03:45:40.841Z,53.79
2022-11-12T03:48:31.665Z,53.58
2022-11-12T03:51:22.760Z,53.65
2022-11-12T03:54:12.865Z,53.16
2022-11-12T03:57:02.522Z,53.83
2022-11-12T03:59:52.863Z,53.88
2022-11-12T04:02:42.856Z,54.21
2022-11-12T04:05:51.217Z,53.55
2022-11-12T04:08:41.526Z,54.43
2022-11-12T04:11:31.424Z,53.43
2022-11-12T04:14:21.819Z,53.48
2022-11-12T04:17:28.594Z,53.82
2022-11-12T04:20:35.095Z,54.08
2022-11-12T04:23:26.359Z,53.91
2022-11-12T04:26:27.482Z,53.74
2022-11-12T04:29:37.535Z,53.45
2022-11-12T04:32:28.595Z,54.32
2022-11-12T04:35:20.370Z,54.88
2022-11-12T04:38:09.824Z,53.70
2022-11-12T04:41:17.635Z,54.39
2022-11-12T04:44:24.122Z,53.69
2022-11-12T04:47:13.637Z,53.62
2022-11-12T04:50:03.492Z,53.81
2022-11-12T04:52:53.232Z,54.14
2022-11-12T04:55:43.365Z,53.90
2022-11-12T04:58:34.618Z,53.42
2022-11-12T05:01:25.092Z,53.72
2022-11-12T05:04:14.530Z,54.25
2022-11-12T05:07:04.988Z,53.56
2022-11-12T05:09:54.164Z,53.52
2022-11-12T05:12:44.832Z,52.92
2022-11-12T05:15:36.150Z,52.60
2022-11-12T05:18:26.327Z,53.69
2022-11-12T05:21:44.972Z,52.70
2022-11-12T05:24:42.019Z,52.75
2022-11-12T05:27:32.268Z,52.67
2022-11-12T05:30:21.877Z,52.29
2022-11-12T05:33:14.015Z,51.42
2022-11-12T05:36:04.331Z,52.27
2022-11-12T05:38:54.246Z,50.89
2022-11-12T05:42:06.217Z,52.61
2022-11-12T05:44:53.944Z,50.17
2022-11-12T05:47:43.115Z,50.93
2022-11-12T05:50:51.346Z,50.77
2022-11-12T05:53:44.432Z,50.50
2022-11-12T05:56:35.308Z,51.27
2022-11-12T05:59:26.215Z,50.05
2022-11-12T06:02:16.030Z,49.47
2022-11-12T06:05:06.488Z,49.70
2022-11-12T06:07:58.463Z,49.73
2022-11-12T06:10:51.457Z,46.66
2022-11-12T06:13:41.178Z,49.40
2022-11-12T06:16:31.441Z,49.08
2022-11-12T06:19:21.535Z,49.02
2022-11-12T06:22:14.461Z,46.86
2022-11-12T06:25:07.308Z,48.63
2022-11-12T06:27:57.114Z,45.50
2022-11-12T06:30:50.344Z,47.92
2022-11-12T06:33:40.782Z,48.19
2022-11-12T06:36:34.192Z,48.39
2022-11-12T06:39:24.223Z,45.71
2022-11-12T06:42:15.496Z,48.33
2022-11-12T06:45:06.847Z,46.23
2022-11-12T06:48:00.783Z,43.89
2022-11-12T06:50:53.011Z,44.89
2022-11-12T06:53:43.493Z,43.46
2022-11-12T06:56:33.655Z,44.56
2022-11-12T06:59:31.718Z,45.60
2022-11-12T07:02:24.294Z,43.58
2022-11-12T07:05:14.809Z,37.53
2022-11-12T07:08:04.213Z,40.87
2022-11-12T07:10:59.550Z,43.53
2022-11-12T07:13:49.448Z,43.18
2022-11-12T07:16:41.158Z,42.41
2022-11-12T07:19:31.375Z,40.65
2022-11-12T07:22:26.712Z,41.86
2022-11-12T07:25:16.508Z,40.19
2022-11-12T07:28:06.559Z,40.71
2022-11-12T07:31:02.688Z,41.90
2022-11-12T07:33:54.600Z,39.03
2022-11-12T07:36:45.005Z,42.13
2022-11-12T07:39:34.518Z,38.76
2022-11-12T07:42:24.707Z,40.87
2022-11-12T07:45:14.655Z,38.86
2022-11-12T07:48:04.468Z,39.14
2022-11-12T07:50:55.613Z,41.16
2022-11-12T07:53:48.712Z,39.18
2022-11-12T07:56:38.935Z,40.68
2022-11-12T07:59:28.360Z,39.15
2022-11-12T08:02:20.064Z,39.14
2022-11-12T08:05:17.581Z,38.89
2022-11-12T08:08:09.964Z,38.15
2022-11-12T08:11:00.529Z,42.74
2022-11-12T08:13:50.622Z,42.36
2022-11-12T08:16:40.681Z,42.02
2022-11-12T08:19:30.055Z,38.55
2022-11-12T08:22:19.494Z,40.25
2022-11-12T08:25:11.238Z,37.98
2022-11-12T08:28:01.213Z,39.07
2022-11-12T08:30:51.207Z,39.15
2022-11-12T08:33:43.438Z,40.08
2022-11-12T08:36:32.914Z,40.21
2022-11-12T08:39:23.242Z,40.66
2022-11-12T08:42:14.191Z,37.33
2022-11-12T08:45:03.823Z,38.02
2022-11-12T08:47:53.991Z,36.98
2022-11-12T08:50:43.976Z,36.51
2022-11-12T08:53:33.125Z,35.25
2022-11-12T08:56:26.739Z,37.30
2022-11-12T08:59:18.810Z,36.41
2022-11-12T09:02:09.366Z,39.42
2022-11-12T09:04:59.042Z,37.47
2022-11-12T09:07:50.455Z,38.17
2022-11-12T09:10:41.397Z,38.16
2022-11-12T09:13:31.652Z,37.14
2022-11-12T09:16:25.655Z,37.17
2022-11-12T09:19:15.591Z,37.04
2022-11-12T09:22:06.123Z,36.68
2022-11-12T09:24:55.696Z,33.76
2022-11-12T09:27:48.253Z,36.08
2022-11-12T09:30:38.816Z,37.09
2022-11-12T09:33:33.682Z,35.49
2022-11-12T09:36:23.704Z,36.50
2022-11-12T09:39:13.115Z,37.70
2022-11-12T09:42:06.578Z,36.28
2022-11-12T09:44:59.622Z,38.08
2022-11-12T09:47:51.253Z,38.12
2022-11-12T09:50:45.391Z,35.57
2022-11-12T09:53:43.971Z,37.59
2022-11-12T09:56:34.409Z,39.41
2022-11-12T09:59:24.273Z,36.31
2022-11-12T10:02:26.470Z,35.99
2022-11-12T10:05:21.422Z,39.46
2022-11-12T10:08:23.856Z,39.83
2022-11-12T10:11:23.980Z,39.76
2022-11-12T10:14:21.011Z,36.39
2022-11-12T10:17:12.501Z,38.46
2022-11-12T10:20:04.766Z,40.39
2022-11-12T10:23:01.908Z,39.34
2022-11-12T10:25:54.076Z,41.01
2022-11-12T10:28:46.804Z,39.25
2022-11-12T10:31:37.668Z,37.02
2022-11-12T10:34:28.430Z,38.98
2022-11-12T10:37:27.266Z,39.41
2022-11-12T10:40:31.632Z,39.93
2022-11-12T10:46:48.027Z,42.03
2022-11-12T10:49:41.086Z,39.88
2022-11-12T10:52:30.929Z,41.51
2022-11-12T10:55:23.632Z,42.37
2022-11-12T10:58:22.117Z,40.96
2022-11-12T11:01:19.888Z,42.74
2022-11-12T11:04:39.200Z,44.21
2022-11-12T11:07:32.622Z,45.14
2022-11-12T11:10:29.346Z,44.63
2022-11-12T11:13:26.250Z,45.12
2022-11-12T11:16:20.371Z,45.58
2022-11-12T11:19:14.832Z,45.69
2022-11-12T11:22:11.911Z,46.31
2022-11-12T11:25:08.818Z,45.56
2022-11-12T11:28:05.519Z,46.68
2022-11-12T11:30:59.619Z,45.76
2022-11-12T11:33:52.108Z,43.82
2022-11-12T11:36:52.326Z,46.95
2022-11-12T11:39:48.732Z,46.71
2022-11-12T11:42:55.408Z,46.56
2022-11-12T11:45:57.317Z,46.08
2022-11-12T11:48:54.716Z,44.52
2022-11-12T11:51:52.332Z,45.00
2022-11-12T11:54:59.507Z,44.87
2022-11-12T11:57:57.379Z,45.90
2022-11-12T12:00:55.092Z,45.40
2022-11-12T12:03:54.292Z,46.46
2022-11-12T12:06:50.661Z,46.52
2022-11-12T12:09:49.450Z,47.14
2022-11-12T12:12:47.069Z,47.97
2022-11-12T12:15:48.219Z,48.23
2022-11-12T12:18:43.148Z,48.73
2022-11-12T12:21:35.440Z,49.45
2022-11-12T12:24:30.087Z,49.88
2022-11-12T12:27:22.490Z,50.33
2022-11-12T12:30:20.628Z,49.84
2022-11-12T12:33:14.368Z,49.84
2022-11-12T12:36:07.161Z,50.71
2022-11-12T12:39:01.854Z,50.75
2022-11-12T12:41:56.875Z,51.58
2022-11-12T12:45:05.872Z,51.05
2022-11-12T12:47:57.853Z,51.06
2022-11-12T12:50:48.836Z,51.44
2022-11-12T12:53:53.348Z,51.63
2022-11-12T12:56:49.058Z,51.79
2022-11-12T12:59:41.350Z,50.81
2022-11-12T13:02:32.547Z,50.77
2022-11-12T13:05:27.877Z,50.60
2022-11-12T13:08:22.587Z,51.48
2022-11-12T13:11:15.811Z,54.07
2022-11-12T13:14:32.113Z,54.75
2022-11-12T13:17:36.464Z,54.35
2022-11-12T13:20:41.152Z,54.92
2022-11-12T13:24:09.297Z,56.02
2022-11-12T13:27:05.553Z,56.11
2022-11-12T13:29:55.769Z,56.19
2022-11-12T13:32:47.890Z,55.38
2022-11-12T13:35:38.571Z,52.21
2022-11-12T13:38:29.503Z,51.50
2022-11-12T13:41:43.390Z,51.31
2022-11-12T13:44:36.477Z,51.30
2022-11-12T13:47:30.368Z,51.11
2022-11-12T13:50:21.547Z,51.63
2022-11-12T13:53:16.244Z,51.41
2022-11-12T13:56:06.127Z,51.84
2022-11-12T13:58:57.464Z,51.50
2022-11-12T14:01:47.173Z,51.75
2022-11-12T14:04:38.535Z,51.82
2022-11-12T14:07:39.736Z,51.76
2022-11-12T14:10:46.105Z,51.27
2022-11-12T14:13:53.461Z,51.80
2022-11-12T14:16:51.808Z,51.36
2022-11-12T14:19:57.202Z,51.73
2022-11-12T14:22:48.809Z,51.71
2022-11-12T14:25:39.483Z,52.24
2022-11-12T14:28:33.346Z,56.18
2022-11-12T14:31:29.084Z,57.42
2022-11-12T14:34:31.351Z,58.04
2022-11-12T14:37:37.220Z,57.68
2022-11-12T14:40:31.107Z,58.01
2022-11-12T14:43:35.505Z,58.64
2022-11-12T14:46:28.275Z,59.52
2022-11-12T14:49:26.268Z,60.02
2022-11-12T14:52:19.926Z,60.61
2022-11-12T14:55:14.150Z,60.98
2022-11-12T14:58:15.903Z,61.21
2022-11-12T15:01:59.294Z,60.15
2022-11-12T15:04:38.885Z,60.26
2022-11-12T15:07:35.665Z,60.50
2022-11-12T15:10:33.217Z,61.15
2022-11-12T15:13:24.353Z,61.11
2022-11-12T15:16:15.126Z,61.27
2022-11-12T15:19:12.596Z,61.47
2022-11-12T15:22:03.904Z,61.86
2022-11-12T15:24:57.425Z,61.55
2022-11-12T15:27:47.739Z,60.48
2022-11-12T15:30:41.206Z,59.04
2022-11-12T15:33:33.336Z,59.28
2022-11-12T15:36:25.365Z,58.98
2022-11-12T15:39:18.147Z,58.45
2022-11-12T15:42:21.091Z,58.55
2022-11-12T15:45:16.937Z,58.60
2022-11-12T15:48:07.250Z,58.54
2022-11-12T15:50:57.628Z,58.60
2022-11-12T15:53:48.031Z,58.63
2022-11-12T15:56:37.787Z,58.54
2022-11-12T15:59:29.127Z,58.19
2022-11-12T16:02:19.413Z,58.44
2022-11-12T16:08:09.349Z,59.33
2022-11-12T16:11:00.290Z,57.32
2022-11-12T16:13:50.632Z,56.90
2022-11-12T16:16:42.880Z,56.31
2022-11-12T16:19:36.818Z,56.24
2022-11-12T16:22:32.656Z,57.01
2022-11-12T16:25:23.480Z,57.28
2022-11-12T16:28:16.735Z,57.75
2022-11-12T16:31:09.932Z,56.73
2022-11-12T16:34:01.144Z,56.52
2022-11-12T16:36:52.054Z,56.53
2022-11-12T16:39:42.258Z,56.84
2022-11-12T16:42:32.586Z,58.06
2022-11-12T16:45:25.218Z,58.18
2022-11-12T16:48:15.636Z,58.18
2022-11-12T16:51:08.091Z,57.98
2022-11-12T16:53:58.358Z,58.50
2022-11-12T16:56:49.041Z,59.42
2022-11-12T16:59:39.315Z,59.36
2022-11-12T17:02:29.231Z,59.60
2022-11-12T17:05:21.322Z,58.89
2022-11-12T17:08:15.953Z,57.91
2022-11-12T17:11:11.166Z,57.79
2022-11-12T17:14:05.799Z,57.62
2022-11-12T17:16:57.308Z,57.49
2022-11-12T17:19:47.027Z,57.73
2022-11-12T17:22:37.235Z,59.73
2022-11-12T17:25:28.952Z,59.57
2022-11-12T17:28:22.936Z,60.11
2022-11-12T17:31:14.463Z,58.97
2022-11-12T17:34:04.238Z,57.77
2022-11-12T17:36:54.528Z,57.03
2022-11-12T17:39:45.979Z,56.56
2022-11-12T17:42:40.667Z,56.04
2022-11-12T17:45:30.329Z,56.12
2022-11-12T17:48:19.636Z,56.10
2022-11-12T17:51:10.765Z,56.72
2022-11-12T17:53:59.966Z,57.41
2022-11-12T17:56:49.559Z,57.80
2022-11-12T17:59:40.506Z,58.41
2022-11-12T18:02:30.269Z,57.77
2022-11-12T18:05:19.778Z,58.60
2022-11-12T18:08:08.975Z,59.21
2022-11-12T18:10:59.135Z,59.77
2022-11-12T18:13:49.252Z,59.31
2022-11-12T18:16:39.953Z,60.09
2022-11-12T18:19:29.303Z,59.63
2022-11-12T18:22:18.642Z,60.33
2022-11-12T18:25:08.830Z,60.71
2022-11-12T18:27:58.756Z,61.41
2022-11-12T18:30:48.190Z,61.48
2022-11-12T18:33:39.405Z,61.64
2022-11-12T18:36:30.017Z,61.20
2022-11-12T18:39:20.031Z,61.31
2022-11-12T18:42:10.048Z,60.80
2022-11-12T18:44:59.760Z,60.81
2022-11-12T18:47:49.037Z,60.96
2022-11-12T18:50:40.197Z,61.14
2022-11-12T18:53:29.801Z,62.16
2022-11-12T18:56:21.029Z,62.30
2022-11-12T18:59:11.140Z,62.96
2022-11-12T19:02:01.036Z,63.25
2022-11-12T19:04:50.290Z,63.29
2022-11-12T19:07:41.470Z,62.33
2022-11-12T19:10:31.392Z,63.01
2022-11-12T19:13:20.926Z,62.79
2022-11-12T19:16:13.070Z,61.82
2022-11-12T19:19:02.348Z,61.68
2022-11-12T19:21:52.464Z,61.75
2022-11-12T19:24:43.525Z,60.59
2022-11-12T19:27:32.778Z,59.40
2022-11-12T19:30:22.119Z,59.78
2022-11-12T19:33:11.661Z,59.58
2022-11-12T19:36:06.202Z,59.94
2022-11-12T19:38:57.925Z,60.12
2022-11-12T19:41:48.692Z,59.28
2022-11-12T19:44:37.884Z,59.17
2022-11-12T19:47:27.330Z,59.67
2022-11-12T19:50:20.872Z,58.75
2022-11-12T19:53:13.168Z,59.12
2022-11-12T19:56:03.584Z,59.95
2022-11-12T19:58:56.413Z,59.96
2022-11-12T20:01:45.593Z,60.46
2022-11-12T20:04:35.448Z,59.47
2022-11-12T20:07:25.669Z,58.92
2022-11-12T20:10:15.211Z,58.49
2022-11-12T20:13:05.515Z,58.09
2022-11-12T20:15:57.056Z,57.89
2022-11-12T20:18:50.876Z,57.98
2022-11-12T20:21:40.966Z,58.22
2022-11-12T20:24:31.482Z,58.23
2022-11-12T20:27:21.048Z,58.19
2022-11-12T20:30:12.111Z,58.11
2022-11-12T20:33:03.460Z,57.91
2022-11-12T20:35:52.789Z,57.76
2022-11-12T20:38:42.679Z,57.24
2022-11-12T20:41:32.811Z,57.25
2022-11-12T20:44:22.555Z,57.61
2022-11-12T20:47:12.026Z,57.80
2022-11-12T20:50:03.140Z,58.15
2022-11-12T20:52:52.883Z,57.76
2022-11-12T20:55:42.323Z,58.06
2022-11-12T20:58:32.705Z,58.39
2022-11-12T21:01:23.293Z,57.72
2022-11-12T21:04:14.337Z,57.75
2022-11-12T21:07:06.161Z,58.29
2022-11-12T21:09:55.270Z,58.48
2022-11-12T21:12:45.070Z,59.40
2022-11-12T21:15:34.859Z,58.71
2022-11-12T21:18:28.878Z,58.04
2022-11-12T21:21:20.578Z,58.58
2022-11-12T21:24:14.320Z,59.59
2022-11-12T21:27:03.693Z,59.90
2022-11-12T21:29:53.568Z,60.60
2022-11-12T21:32:42.929Z,61.14
2022-11-12T21:35:32.797Z,60.08
2022-11-12T21:38:22.055Z,59.56
2022-11-12T21:41:14.923Z,59.42
2022-11-12T21:44:04.407Z,58.71
2022-11-12T21:46:54.304Z,58.80
2022-11-12T21:49:44.032Z,58.46
2022-11-12T21:52:33.819Z,58.52
2022-11-12T21:55:23.179Z,58.14
2022-11-12T21:58:13.882Z,57.84
2022-11-12T22:01:11.358Z,57.23
2022-11-12T22:04:00.966Z,57.61
2022-11-12T22:06:51.041Z,58.13
2022-11-12T22:09:39.862Z,57.95
2022-11-12T22:12:29.269Z,58.15
2022-11-12T22:15:24.351Z,58.09
2022-11-12T22:18:14.611Z,58.25
2022-11-12T22:21:05.473Z,57.79
2022-11-12T22:23:54.985Z,58.09
2022-11-12T22:26:45.227Z,58.82
2022-11-12T22:29:35.361Z,58.23
2022-11-12T22:32:28.669Z,58.84
2022-11-12T22:35:18.646Z,58.75
2022-11-12T22:38:08.264Z,58.88
2022-11-12T22:41:03.812Z,59.60
2022-11-12T22:43:53.862Z,59.56
2022-11-12T22:46:44.008Z,59.29
2022-11-12T22:49:34.930Z,59.71
2022-11-12T22:52:24.293Z,59.27
2022-11-12T22:55:13.776Z,59.39
2022-11-12T22:58:03.237Z,59.62
2022-11-12T23:00:53.785Z,59.45
2022-11-12T23:03:43.440Z,59.37
2022-11-12T23:06:34.926Z,59.68
2022-11-12T23:09:24.384Z,59.38
2022-11-12T23:12:13.742Z,59.43
2022-11-12T23:15:02.985Z,59.58
2022-11-12T23:17:52.671Z,59.24
2022-11-12T23:20:42.178Z,59.05
2022-11-12T23:23:33.361Z,59.33
2022-11-12T23:26:24.664Z,59.96
2022-11-12T23:29:15.017Z,60.51
2022-11-12T23:32:04.599Z,60.23
2022-11-12T23:34:54.444Z,59.77
2022-11-12T23:37:43.935Z,60.07
2022-11-12T23:40:34.774Z,60.87
2022-11-12T23:43:24.634Z,60.59
2022-11-12T23:46:14.648Z,60.61
2022-11-12T23:49:04.141Z,60.57
2022-11-12T23:51:53.704Z,60.35
2022-11-12T23:54:43.833Z,60.54
2022-11-12T23:57:34.802Z,61.19
